AirNav   Pilot Hours Calculator
 
 1337 users online  

52VA Building 250 Heliport
Manassas, Virginia, USA

GOING TO MANASSAS?


FAA INFORMATION EFFECTIVE 12 SEPTEMBER 2019

Location

FAA Identifier: 52VA
Lat/Long: 38-45-35.4150N 077-30-22.9620W
38-45.590250N 077-30.382700W
38.7598375,-77.5063783
(estimated)
Elevation: 230 ft. / 70.1 m (surveyed)
Variation: 09W (1985)
From city: 1 mile SW of MANASSAS, VA
Time zone: UTC -4 (UTC -5 during Standard Time)
Zip code: 20109

Heliport Operations

Heliport use: Private use. Permission required prior to landing
Activation date: 08/1986
Control tower: no
ARTCC: WASHINGTON CENTER
FSS: LEESBURG FLIGHT SERVICE STATION
Attendance: UNATNDD
Segmented circle: yes

Heliport Communications

WX AWOS-3PT at HEF (2.4 nm S): PHONE 703-361-6160
WX ASOS at IAD (11 nm N): PHONE 703-661-2990
WX AWOS-3 at HWY (14 nm SW): 120.350 (540-788-4078)
WX AWOS-3 at JYO (19 nm N): 125.225 (703-777-3781)

Nearby radio navigation aids

VOR radial/distance  VOR name  Freq  Var
AMLr198/10.6ARMEL VOR/DME113.5008W
CSNr073/18.3CASANOVA VORTAC116.3006W
DCAr264/22.8WASHINGTON VOR/DME111.0009W
BRVr353/26.4BROOKE VORTAC114.5009W
ADWr275/30.1ANDREWS VORTAC113.1010W
LDNr106/33.2LINDEN VORTAC114.3006W
OTTr285/35.8NOTTINGHAM VORTAC113.7010W
FDKr197/(39.6)FREDERICK VOR109.0008W

 
NDB name  Hdg/Dist  Freq  Var  ID
DAVEE297/19.522309WDAA -.. .- .-
GEORGETOWN249/20.632309WGTN --. - -.
OXONN280/22.433211WDCA -.. -.-. .-
NAILR056/26.235110WMSQ -- ... --.-
SHANNON005/29.723710WEZF . --.. ..-.

Heliport Services

Runway Information

Helipad H2

Dimensions: 190 x 125 ft. / 58 x 38 m
Surface: asphalt
Traffic pattern: leftleft

Heliport Ownership and Management from official FAA records

Ownership: Privately-owned
Owner: LOCKHEED MARTIN
9500 GOODWIN DRIVE
MANASSAS, VA 22110
Phone 703-367-3090
Manager: LOCKHEED MARTIN
9500 GOODWIN DRIVE
MANASSAS, VA 22110
Phone 703-367-3980

Additional Remarks

HELIPORT USED FOR EMERGENCY PURPOSES ONLY.
FOR CD CTC POTOMAC APCH AT 866-709-4993.

Instrument Procedures

There are no published instrument procedures at 52VA.

Some nearby airports with instrument procedures:

KHEF - Manassas Regional Airport/Harry P. Davis Field (2 nm S)
KIAD - Washington Dulles International Airport (11 nm N)
KHWY - Warrenton-Fauquier Airport (14 nm SW)
KDAA - Davison Army Airfield (15 nm E)
KNYG - Quantico Marine Corps Airfield / Turner Field (18 nm SE)
KJYO - Leesburg Executive Airport (19 nm N)
 
Loc | Ops | Rwys | IFR | FBO | Links
Com | Nav | Svcs | Stats | Notes
Area around 52VA (Building 250 Heliport)
 
Road maps at: MapQuest Bing Google
 
Aerial photo
No photo
 
Sectional chart

 
Airport distance calculator
Flying to Building 250 Heliport? Find the distance to fly.

From to 52VA

Sunrise and sunset
Times for 20-Sep-2019
 Local
(UTC-4)
 Zulu
(UTC)
Morning civil twilight06:3010:30
Sunrise06:5710:57
Sunset19:1023:10
Evening civil twilight19:3723:37

Current date and time
Zulu (UTC)  20-Sep-2019 19:50:56
Local (UTC-4)  20-Sep-2019 15:50:56
 
METAR
KHEF 
3nm S 
201856Z 15005KT 10SM CLR 26/11 A3022 RMK AO2 SLP240 T02560106
KIAD 
11nm N 
201852Z 10007KT 10SM SCT250 25/09 A3022 RMK AO2 SLP232 T02500094
KHWY 
14nm SW 
201935Z AUTO 24006KT 10SM CLR 27/07 A3021 RMK AO2 T02740074
KDAA 
16nm E 
201856Z AUTO 18007KT 10SM CLR 25/11 A3023 RMK AO2 SLP240 T02470113 $
KJYO 
19nm N 
201935Z AUTO 01003KT 10SM CLR 25/10 A3022 RMK AO2
KNYG 
19nm SE 
201856Z 17010KT 10SM SCT200 26/12 A3023 RMK AO2 SLP239 T02560122
TAF
KIAD 
11nm N 
201725Z 2018/2124 20007KT P6SM FEW250 FM210000 VRB03KT P6SM SKC FM211500 21005KT P6SM SCT050
KDAA 
16nm E 
201700Z 2017/2123 18006KT 9999 SKC QNH3017INS BECMG 2102/2103 20006KT 9999 SCT035 QNH3017INS TX24/2021Z TN13/2111Z
KNYG 
19nm SE 
2015/2115 VRB06KT 9999 FEW200 QNH3020INS BECMG 2109/2111 VRB06KT 9999 SCT050 SCT070 QNH3024INS T26/2021Z T14/2111Z
NOTAMs
Click for the latest NOTAMs
NOTAMs are issued by the DoD/FAA and will open in a separate window not controlled by AirNav.

 

 
 

Would you like to see your business listed on this page?

 If your business provides an interesting product or service to pilots, flight crews, aircraft, or users of the Building 250 Heliport, you should consider listing it here.  To start the listing process, click on the button below
 
Add a business
 

Other Pages about Building 250 Heliport

Update a link
 
Copyright © AirNav, LLC. All rights reserved. Privacy Policy  Contact